Nearby METAR Reports

 

KORH - Worcester, Massachusetts, USA
Distance from station: NW 4mi, 7km
Updated: Tue, 17-May-2022 7:54am EDT
Clear
Clear
 Wind from W
Wind: W 21 mph , 33 km/h, Gust: 29 mph , 46 km/h
Temperature: 55°F , 13°C
Dew Point: 45°F , 7°C
Humidity: 67%
Barometer: 29.66 inHg , 1004.4 hPa
Clouds: Clear
Visibility: 10 miles , 16 km
2022/05/17 11:54 KORH 171154Z 26018G25KT 10SM CLR 13/07 A2966 RMK AO2 SLP044 70077 T01280072 10133 20111 51020
KBOS - Boston, Massachusetts, USA
Distance from station: ENE 42mi, 68km
Updated: Tue, 17-May-2022 7:54am EDT
Clear
Clear
 Wind from W
Wind: W 17 mph , 28 km/h, Gust: 24 mph , 39 km/h
Temperature: 63°F , 17°C
Dew Point: 46°F , 8°C
Humidity: 56%
Barometer: 29.65 inHg , 1004.1 hPa
Clouds: Clear
Visibility: 10 miles , 16 km
2022/05/17 11:54 KBOS 171154Z 26015G21KT 10SM CLR 17/08 A2965 RMK AO2 SLP039 70009 T01670078 10178 20144 51018
 
KCQX - Chatham, Massachusetts, USA
Distance from station: SE 102mi, 164km
Updated: Tue, 17-May-2022 7:52am EDT
Clear
Clear
 Wind from W
Wind: W 10 mph , 17 km/h, Gust: 18 mph , 30 km/h
Temperature: 63°F , 17°C
Dew Point: 54°F , 12°C
Humidity: 73%
Barometer: 29.68 inHg , 1005.1 hPa
Clouds: Clear
Visibility: 10 miles , 16 km
2022/05/17 11:52 KCQX 171152Z AUTO 26009G16KT 220V290 10SM CLR 17/12 A2968 RMK AO2 SLP053 70029 T01670117 10167 20139 53017
KMVY - Marthas Vineyard, Massachusetts, USA
Distance from station: SE 84mi, 135km
Updated: Tue, 17-May-2022 7:53am EDT
Clear
Clear
 Wind from W
Wind: W 15 mph , 24 km/h, Gust: 22 mph , 35 km/h
Temperature: 61°F , 16°C
Dew Point: 48°F , 9°C
Humidity: 63%
Barometer: 29.71 inHg , 1006.1 hPa
Clouds: Clear
Visibility: 10 miles , 16 km
2022/05/17 11:53 KMVY 171153Z 28013G19KT 10SM CLR 16/09 A2971 RMK AO2 SLP061 70036 T01560094 10156 20139 51028
 
KPVC - Provincetown, Massachusetts, USA
Distance from station: NNW 85mi, 136km
Updated: Tue, 17-May-2022 7:56am EDT
Clear
Clear
 Wind from W
Wind: W 13 mph , 20 km/h
Temperature: 59°F , 15°C
Dew Point: 54°F , 12°C
Humidity: 82%
Barometer: 29.67 inHg , 1004.7 hPa
Clouds: Clear
Visibility: 10 miles , 16 km
2022/05/17 11:56 KPVC 171156Z AUTO 26011KT 10SM CLR 15/12 A2967 RMK AO2 SLP047 70013 T01500117 10150 20128 51024
KAQW - Savoy, Massachusetts, USA
Distance from station: NNW 66mi, 106km
Updated: Tue, 17-May-2022 7:52am EDT
Clear
Clear
 Wind from W
Wind: W 13 mph , 20 km/h, Gust: 25 mph , 41 km/h
Temperature: 61°F , 16°C
Dew Point: 46°F , 8°C
Humidity: 59%
Barometer: 29.68 inHg , 1005.1 hPa
Clouds: Clear
Visibility: 10 miles , 16 km
2022/05/17 11:52 KAQW 171152Z AUTO 26011G22KT 10SM CLR 16/08 A2968 RMK AO2 SLP049 70086 T01560078 10156 20122 50006
 
KIZG - Fryeburg, Maine, USA
Distance from station: NNE 133mi, 214km
Updated: Tue, 17-May-2022 7:54am EDT
Mostly cloudy
Mostly cloudy
 Wind from W
Wind: W 10 mph , 17 km/h, Gust: 16 mph , 26 km/h
Temperature: 59°F , 15°C
Dew Point: 45°F , 7°C
Humidity: 59%
Barometer: 29.52 inHg , 999.7 hPa
Clouds: Mostly cloudy
Visibility: 10 miles , 16 km
Cloud details: Mostly cloudy 5000 ft
2022/05/17 11:54 KIZG 171154Z AUTO 26009G14KT 220V310 10SM BKN050 15/07 A2952 RMK AO2 SLP997 70023 T01500072 10156 20133 51019
KMWN - Mt Washington, New Hampshire, USA
Distance from station: NNE 146mi, 234km
Updated: Tue, 17-May-2022 6:57am EDT
Light rain, Showers, Freezing, Fog, Overcast
Light rain, Showers, Freezing, Fog, Overcast
 Wind from W
Wind: W 86 mph , 139 km/h, Gust: 91 mph , 146 km/h
Temperature: 32°F , 0°C
Wind Chill: 11°F , -12°C
Dew Point: 32°F , 0°C
Humidity: 100%
Summary: Light rain, Showers, Freezing, Fog
Clouds: Overcast
Visibility: 0 miles , 0 km
Cloud details: Overcast 0 ft
2022/05/17 10:57 KMWN 171057Z 28075G79KT 0SM -SHRA FZFG VV000 M00/M00 RMK VRY LGT ICG
 
KBML - Berlin, New Hampshire, USA
Distance from station: NNE 160mi, 257km
Updated: Tue, 17-May-2022 7:52am EDT
Overcast
Overcast
 Wind from W
Wind: W 5 mph , 7 km/h
Temperature: 54°F , 12°C
Dew Point: 45°F , 7°C
Humidity: 72%
Barometer: 29.51 inHg , 999.3 hPa
Clouds: Overcast
Visibility: 10 miles , 16 km
Cloud details: Partly cloudy 3000 ft
Mostly cloudy 3700 ft
Overcast 4600 ft
2022/05/17 11:52 KBML 171152Z AUTO 26004KT 10SM SCT030 BKN037 OVC046 12/07 A2951 RMK AO2 RAB1059E11 SLP994 P0000 60003 70115 T01220072 10150 20111 50009